San Salvador, El Salvador

10:18 AM CST en Diciembre 22, 2014 (GMT -0600)
Ilopango International | Change Station
CLOSE
Current Station
Aeropuerto
Location: San Salvador,
Altura: 2037 ft
Estaciones meteorológicas cercanas

Alt 2037 ft 13.70 °N, 89.12 °W | Updated 28 minutes ago

Partly Cloudy
Parcialmente nublado
79 ° F
Sensación térmica 79 ° F
N
4
Viento Variable Viento desde NNO

Hoy
Alta -- | Baja -- ° F
--% Posibilidad de precipitaciones
Ayer
Alta -- | Baja -- ° F
Precip. -- pul
6:15 AM 5:34 PM
Luna nueva, 1% visible
Presión 29.98 pul
Visibilidad 6.2 Millas
Nubes Baja 3300 ft
Punto de rocío 68 ° F
Humedad 69%
Precipitaciones 0.00 pul
Espesor de la nieve No disponible.
UV 5 de una escala de 12
Polen No disponible.
Calidad del aire No disponible.
Flu Activity No disponible.
METAR MSSS 221550Z 34003KT 9999 FEW033 26/20 Q1015 A3000

More Conditions Fewer Conditions

Presión 29.98 pul
Visibilidad 6.2 Millas
Nubes Baja 3300 ft
Punto de rocío 68 ° F
Humedad 69%
Precipitaciones 0.00 pul
Espesor de la nieve No disponible.
UV 5 de una escala de 12
Polen No disponible.
Calidad del aire No disponible.
Flu Activity No disponible.
METAR MSSS 221550Z 34003KT 9999 FEW033 26/20 Q1015 A3000

More Conditions Fewer Conditions

10-Day Weather Forecast

Almanac

Astronomía

Dec. 22, 2014 Salida Puesta
Hora real
Crepúsculo civil
Crepúsculo náutico
Crepúsculo astronómico
Luna
Horas de luz
Horas de luz
Tomorrow will be .
, % of the Moon is Illuminated

Extremos de hoy

Máximos del país Bajas del país

Community

WunderPhotos

Upload Photos

1,779,630 ¡fotos cargadas!

WunderBlogs® & News

Nearby

Calidad del aire

  Calidad del aire Índice AQ Contaminante
Not available.

Grosos de nieve

Estación Profundido Altura

Actividad de terremotos

Ciudad Distance Mag. Tiempo y dato
Magnitud mínima muestra es 2,5.

Temperaturas de aguas costeras

Lugar Temperatura

Estaciones meteorológicas cercanas